Time;durP1;ratioP1;P1;durP2;ratioP2;P2;SDS_P1;SDS_P2;PMS_P1;PMS_P2;Temp;Humidity;BMP_temperature;BMP_pressure;BME280_temperature;BME280_humidity;BME280_pressure;Samples;Min_cycle;Max_cycle;Signal;HPM_P1;HPM_P2
2021/08/23 00:00:58;;;;;;;17.37;2.97;;;;;;;13.80;87.56;97003.78;2594829;36;20418;-72
2021/08/23 00:03:32;;;;;;;5.30;2.80;;;;;;;13.82;88.16;97006.31;2594497;54;20434;-72
2021/08/23 00:06:03;;;;;;;9.87;3.43;;;;;;;13.81;88.67;97005.47;2600968;36;20443;-71
2021/08/23 00:08:33;;;;;;;7.00;3.20;;;;;;;13.87;87.65;96998.91;2595365;54;20894;-72
2021/08/23 00:11:06;;;;;;;7.53;2.57;;;;;;;13.88;87.35;96997.97;2594730;36;20810;-72
2021/08/23 00:13:36;;;;;;;7.63;2.77;;;;;;;13.92;87.28;96999.41;2593366;39;20874;-73
2021/08/23 00:16:06;;;;;;;9.60;2.50;;;;;;;13.94;86.70;96989.59;2595901;36;21107;-73
2021/08/23 00:18:36;;;;;;;7.60;2.40;;;;;;;13.95;86.13;96995.69;2594524;54;20406;-73
2021/08/23 00:21:12;;;;;;;6.87;2.60;;;;;;;13.99;85.76;97003.22;2594397;36;20513;-74
2021/08/23 00:23:50;;;;;;;5.70;3.00;;;;;;;13.88;85.33;96990.06;2595934;54;21118;-72
2021/08/23 00:26:26;;;;;;;6.40;2.13;;;;;;;14.02;85.19;96999.53;2594745;36;20742;-73
2021/08/23 00:28:58;;;;;;;10.83;2.30;;;;;;;14.10;85.04;96993.69;2594935;54;20389;-72
2021/08/23 00:31:28;;;;;;;6.10;2.30;;;;;;;14.01;85.55;96996.06;2595383;36;20470;-72
2021/08/23 00:33:58;;;;;;;5.20;2.03;;;;;;;14.01;86.59;96996.06;2594763;54;20459;-74
2021/08/23 00:36:28;;;;;;;8.30;2.50;;;;;;;13.97;86.38;96991.97;2594565;36;20434;-73
2021/08/23 00:38:58;;;;;;;11.43;2.10;;;;;;;14.00;84.83;96994.38;2594881;54;21244;-73
2021/08/23 00:41:32;;;;;;;6.10;2.70;;;;;;;13.99;86.32;96990.06;2593561;36;20421;-74
2021/08/23 00:44:02;;;;;;;4.50;1.80;;;;;;;13.97;85.80;96993.78;2595200;39;20711;-75
2021/08/23 00:46:32;;;;;;;7.80;2.53;;;;;;;13.98;85.00;96985.75;2595417;36;21144;-75
2021/08/23 00:49:03;;;;;;;2.87;2.47;;;;;;;13.98;85.78;96985.75;2594858;54;20443;-75
2021/08/23 00:51:33;;;;;;;3.53;2.03;;;;;;;14.01;85.11;96987.31;2594160;36;20459;-75
2021/08/23 00:54:03;;;;;;;4.63;2.10;;;;;;;13.96;85.42;96974.50;2594593;54;20909;-74
2021/08/23 00:56:36;;;;;;;3.70;1.90;;;;;;;14.00;85.04;96973.31;2598219;31;20757;-75
2021/08/23 00:59:08;;;;;;;6.73;2.30;;;;;;;14.03;83.92;96990.66;2594328;39;20820;-74
2021/08/23 01:01:48;;;;;;;6.03;2.37;;;;;;;13.99;84.54;96971.63;2594541;36;20470;-74
2021/08/23 01:04:25;;;;;;;4.13;2.37;;;;;;;13.99;85.50;96987.41;2594392;54;20453;-74
2021/08/23 01:06:56;;;;;;;16.13;2.30;;;;;;;14.04;84.85;96985.28;2594176;36;20431;-75
2021/08/23 01:09:29;;;;;;;4.07;1.77;;;;;;;14.02;85.33;96987.19;2596161;54;20449;-75
2021/08/23 01:12:06;;;;;;;4.70;2.43;;;;;;;14.02;84.59;96984.56;2599533;36;20442;-74
2021/08/23 01:14:37;;;;;;;7.10;2.70;;;;;;;13.99;84.42;96986.59;2594560;54;20945;-75
2021/08/23 01:17:07;;;;;;;3.50;1.97;;;;;;;13.96;84.67;96987.66;2593545;36;21218;-72
2021/08/23 01:19:40;;;;;;;3.57;2.07;;;;;;;13.94;84.95;96986.94;2593887;54;20422;-72
2021/08/23 01:22:13;;;;;;;3.93;2.10;;;;;;;13.90;84.66;96988.16;2594718;36;20992;-72
2021/08/23 01:24:46;;;;;;;5.23;1.87;;;;;;;13.91;84.85;96995.06;2594659;54;20448;-72
2021/08/23 01:27:19;;;;;;;4.73;2.33;;;;;;;13.85;84.55;96988.47;2595103;36;20453;-73
2021/08/23 01:30:07;;;;;;;5.97;2.13;;;;;;;13.88;85.07;96994.47;2595280;54;20418;-74
2021/08/23 01:32:42;;;;;;;5.03;2.23;;;;;;;13.80;85.64;96989.81;2559700;54;2004078;-73
2021/08/23 01:35:12;;;;;;;4.03;1.93;;;;;;;13.81;85.88;96989.66;2595036;31;20405;-74
2021/08/23 01:37:42;;;;;;;3.43;2.20;;;;;;;13.76;85.96;96986.56;2594791;54;20414;-71
2021/08/23 01:40:13;;;;;;;6.10;2.50;;;;;;;13.74;85.92;96991.09;2595011;36;20424;-73
2021/08/23 01:42:43;;;;;;;9.33;2.80;;;;;;;13.72;86.32;96989.53;2595271;54;20910;-74
2021/08/23 01:45:14;;;;;;;4.70;2.47;;;;;;;13.71;86.19;96988.69;2595598;36;20428;-75
2021/08/23 01:47:46;;;;;;;6.00;2.10;;;;;;;13.69;87.06;96992.41;2596607;39;20737;-73
2021/08/23 01:50:17;;;;;;;13.00;2.23;;;;;;;13.79;86.95;96993.38;2594541;36;21165;-73
2021/08/23 01:52:46;;;;;;;4.70;2.43;;;;;;;13.72;86.89;96992.16;2594212;54;20450;-73
2021/08/23 01:55:16;;;;;;;4.40;2.10;;;;;;;13.68;86.50;96994.19;2594658;36;20482;-74
2021/08/23 01:57:46;;;;;;;8.10;2.33;;;;;;;13.71;86.88;96995.75;2594397;54;20421;-75
2021/08/23 02:00:38;;;;;;;5.20;2.20;;;;;;;13.74;86.97;96993.72;2594872;36;20407;-72
2021/08/23 02:03:10;;;;;;;7.60;2.20;;;;;;;13.78;88.07;96989.06;2592644;49;20422;-73
2021/08/23 02:05:40;;;;;;;4.97;2.83;;;;;;;13.80;87.94;96989.81;2594445;36;20767;-72
2021/08/23 02:08:10;;;;;;;9.93;2.80;;;;;;;13.81;87.12;96984.41;2592336;54;20434;-74
2021/08/23 02:10:40;;;;;;;7.33;2.60;;;;;;;13.80;86.79;96987.16;2592233;36;20769;-73
2021/08/23 02:13:10;;;;;;;6.83;2.80;;;;;;;13.83;86.90;96987.75;2592747;47;20514;-74
2021/08/23 02:15:40;;;;;;;7.53;2.60;;;;;;;13.77;86.94;96988.22;2592525;36;20406;-74
2021/08/23 02:18:12;;;;;;;5.07;2.60;;;;;;;13.74;87.62;96974.44;2592560;54;20948;-74
2021/08/23 02:20:42;;;;;;;8.13;2.40;;;;;;;13.79;87.83;96981.03;2602157;36;20464;-74
2021/08/23 02:23:13;;;;;;;6.43;2.77;;;;;;;13.79;88.25;96982.84;2597950;54;20490;-74
2021/08/23 02:25:43;;;;;;;8.80;2.53;;;;;;;13.77;88.42;96976.88;2593092;36;20399;-74
2021/08/23 02:28:13;;;;;;;3.63;2.10;;;;;;;13.76;88.36;96980.44;2593300;54;20444;-74
2021/08/23 02:30:43;;;;;;;13.07;2.77;;;;;;;13.78;88.30;96983.78;2592868;36;20412;-74
2021/08/23 02:33:16;;;;;;;11.00;2.83;;;;;;;13.73;89.05;96978.88;2593345;54;20916;-74
2021/08/23 02:35:46;;;;;;;10.17;2.57;;;;;;;13.74;88.48;96982.34;2595020;36;20494;-73
2021/08/23 02:38:16;;;;;;;7.17;2.53;;;;;;;13.71;88.56;96982.59;2594489;47;20922;-75
2021/08/23 02:40:46;;;;;;;12.43;2.83;;;;;;;13.68;89.29;96985.44;2594488;36;20456;-74
2021/08/23 02:43:16;;;;;;;8.77;3.03;;;;;;;13.65;88.49;96984.72;2595062;54;20441;-74
2021/08/23 02:45:45;;;;;;;7.70;3.00;;;;;;;13.67;88.52;96981.97;2594110;36;20437;-75
2021/08/23 02:48:18;;;;;;;8.37;3.37;;;;;;;13.70;88.48;96989.66;2595147;54;20554;-73
2021/08/23 02:50:48;;;;;;;5.77;2.93;;;;;;;13.70;88.68;96991.44;2595611;36;20922;-72
2021/08/23 02:53:18;;;;;;;5.97;2.30;;;;;;;13.70;87.49;96987.03;2595495;54;20930;-74
2021/08/23 02:55:48;;;;;;;9.43;2.10;;;;;;;13.71;87.43;96979.97;2594574;36;20433;-73
2021/08/23 02:58:17;;;;;;;3.67;2.30;;;;;;;13.72;88.15;96984.25;2594900;54;20415;-73
2021/08/23 03:00:47;;;;;;;5.10;2.67;;;;;;;13.65;88.11;96983.88;2593655;36;20410;-73
2021/08/23 03:03:20;;;;;;;4.80;2.67;;;;;;;13.62;88.64;96981.47;2594680;54;20387;-74
2021/08/23 03:05:50;;;;;;;3.27;2.60;;;;;;;13.64;89.05;96988.31;2598838;36;20410;-74
2021/08/23 03:08:19;;;;;;;9.73;2.83;;;;;;;13.62;89.26;96984.97;2594381;54;20394;-73
2021/08/23 03:10:51;;;;;;;10.40;2.50;;;;;;;13.56;89.74;96984.56;2594739;36;20494;-72
2021/08/23 03:13:21;;;;;;;5.47;2.63;;;;;;;13.62;88.56;96984.09;2594357;54;20409;-74
2021/08/23 03:15:51;;;;;;;8.40;2.97;;;;;;;13.62;89.54;96984.97;2594696;36;20433;-73
2021/08/23 03:18:23;;;;;;;5.30;3.10;;;;;;;13.64;89.78;96977.78;2594176;39;20855;-73
2021/08/23 03:20:53;;;;;;;8.13;3.27;;;;;;;13.63;89.08;96977.91;2593547;36;20914;-73
2021/08/23 03:23:23;;;;;;;6.07;3.30;;;;;;;13.73;88.78;96985.94;2593627;54;20446;-72
2021/08/23 03:25:53;;;;;;;13.90;2.60;;;;;;;13.63;89.21;96978.72;2594180;36;20968;-73
2021/08/23 03:28:24;;;;;;;4.60;2.53;;;;;;;13.54;88.84;96976.78;2594120;54;20410;-74
2021/08/23 03:30:54;;;;;;;9.50;2.80;;;;;;;13.50;89.36;96980.59;2597663;36;20421;-73
2021/08/23 03:33:26;;;;;;;13.73;2.97;;;;;;;13.59;88.66;96987.81;2595086;54;20925;-73
2021/08/23 03:35:56;;;;;;;3.57;2.20;;;;;;;13.59;89.63;96987.81;2594556;36;20930;-73
2021/08/23 03:38:26;;;;;;;7.50;2.93;;;;;;;13.71;89.71;96998.38;2596316;54;20897;-72
2021/08/23 03:40:56;;;;;;;5.17;2.67;;;;;;;13.71;89.18;96995.75;2595119;36;20461;-72
2021/08/23 03:43:26;;;;;;;5.37;2.23;;;;;;;13.72;88.32;96990.38;2596061;54;20438;-72
2021/08/23 03:45:56;;;;;;;4.20;2.10;;;;;;;13.77;88.47;96997.91;2595985;36;20445;-72
2021/08/23 03:48:28;;;;;;;8.40;2.57;;;;;;;13.75;89.24;96986.66;2595417;54;20418;-73
2021/08/23 03:50:58;;;;;;;10.60;2.83;;;;;;;13.63;89.91;96984.00;2597269;36;20422;-73
2021/08/23 03:53:28;;;;;;;6.43;2.40;;;;;;;13.64;89.99;96990.94;2599049;39;20775;-73
2021/08/23 03:56:06;;;;;;;8.53;3.00;;;;;;;13.56;90.54;96985.41;2596035;36;20470;-72
2021/08/23 03:58:36;;;;;;;9.70;2.73;;;;;;;13.60;90.42;96983.38;2596828;54;20390;-72
2021/08/23 04:01:06;;;;;;;2.90;2.20;;;;;;;13.49;91.56;96991.25;2597111;31;20523;-73
2021/08/23 04:03:39;;;;;;;5.07;2.57;;;;;;;13.56;90.88;96982.78;2596086;54;20441;-72
2021/08/23 04:06:12;;;;;;;6.67;2.83;;;;;;;13.56;91.32;96979.31;2595529;36;20841;-75
2021/08/23 04:08:43;;;;;;;8.30;3.27;;;;;;;13.65;91.81;96984.72;2595123;54;20552;-74
2021/08/23 04:11:18;;;;;;;10.67;2.73;;;;;;;13.64;90.98;96990.94;2596324;36;20757;-74
2021/08/23 04:13:48;;;;;;;9.20;3.13;;;;;;;13.67;90.63;96989.03;2593616;47;20426;-73
2021/08/23 04:16:19;;;;;;;4.77;2.80;;;;;;;13.64;90.34;96993.59;2594940;36;20906;-73
2021/08/23 04:18:52;;;;;;;8.77;3.10;;;;;;;13.62;90.43;96992.00;2594888;54;20453;-73
2021/08/23 04:21:21;;;;;;;8.87;2.70;;;;;;;13.63;90.07;96996.31;2594738;36;21302;-75
2021/08/23 04:23:51;;;;;;;10.50;2.77;;;;;;;13.65;89.43;97000.50;2594941;54;21198;-74
2021/08/23 04:26:21;;;;;;;7.47;2.60;;;;;;;13.62;90.15;96999.91;2594345;36;20773;-75
2021/08/23 04:28:51;;;;;;;13.23;3.20;;;;;;;13.62;90.87;97006.03;2594408;54;20398;-74
2021/08/23 04:31:21;;;;;;;6.20;3.40;;;;;;;13.58;91.34;97001.94;2594657;36;21095;-75
2021/08/23 04:33:53;;;;;;;7.03;3.13;;;;;;;13.58;91.01;97001.09;2597938;39;20831;-75
2021/08/23 04:36:24;;;;;;;4.23;2.77;;;;;;;13.54;91.28;97002.25;2598729;36;20806;-74
2021/08/23 04:38:54;;;;;;;7.10;3.10;;;;;;;13.51;91.45;97000.72;2594667;54;20472;-74
2021/08/23 04:41:24;;;;;;;6.63;2.90;;;;;;;13.50;91.46;97006.91;2595046;36;20450;-74
2021/08/23 04:43:54;;;;;;;15.73;3.30;;;;;;;13.52;91.05;96991.84;2595082;54;20454;-74
2021/08/23 04:46:24;;;;;;;8.20;3.00;;;;;;;13.46;91.77;97000.19;2595125;31;21128;-74
2021/08/23 04:48:56;;;;;;;8.17;2.90;;;;;;;13.39;92.15;97006.88;2594753;47;21285;-74
2021/08/23 04:51:27;;;;;;;6.80;3.03;;;;;;;13.40;91.79;97005.91;2595525;36;20443;-74
2021/08/23 04:53:57;;;;;;;13.03;3.43;;;;;;;13.44;91.90;97007.38;2596366;54;21048;-75
2021/08/23 04:56:27;;;;;;;8.70;3.67;;;;;;;13.45;91.93;97007.25;2594075;36;21067;-75
2021/08/23 04:58:57;;;;;;;5.00;2.80;;;;;;;13.55;91.26;97003.97;2595157;54;20465;-75
2021/08/23 05:01:27;;;;;;;7.87;3.03;;;;;;;13.49;90.98;97012.31;2593651;36;20782;-75
2021/08/23 05:04:00;;;;;;;6.83;2.50;;;;;;;13.61;91.67;97014.84;2594449;54;20410;-75
2021/08/23 05:06:30;;;;;;;8.13;3.10;;;;;;;13.73;91.31;97007.00;2594414;36;20809;-75
2021/08/23 05:09:03;;;;;;;13.67;3.53;;;;;;;13.71;91.33;97014.19;2594116;54;20430;-75
2021/08/23 05:11:33;;;;;;;5.23;2.87;;;;;;;13.76;90.35;97017.28;2593946;36;20435;-75
2021/08/23 05:14:03;;;;;;;4.93;3.17;;;;;;;13.73;89.69;97014.91;2594155;54;20434;-75
2021/08/23 05:16:34;;;;;;;10.40;3.53;;;;;;;13.76;90.83;97015.50;2593873;36;20451;-75
2021/08/23 05:19:07;;;;;;;6.70;2.73;;;;;;;13.83;89.91;97018.50;2595833;39;20861;-75
2021/08/23 05:21:36;;;;;;;8.97;3.00;;;;;;;13.80;90.33;97019.59;2594940;36;20446;-76
2021/08/23 05:24:06;;;;;;;5.73;3.23;;;;;;;13.83;90.53;97021.97;2595504;54;21032;-75
2021/08/23 05:26:39;;;;;;;12.53;4.53;;;;;;;13.89;90.57;97025.94;2599531;31;21041;-76
2021/08/23 05:29:09;;;;;;;6.93;3.60;;;;;;;13.94;90.69;97021.19;2594477;54;20419;-76
2021/08/23 05:31:39;;;;;;;8.20;2.90;;;;;;;13.98;90.04;97027.06;2595320;36;20761;-75
2021/08/23 05:34:11;;;;;;;9.53;3.13;;;;;;;13.91;90.11;97018.75;2594132;54;20423;-75
2021/08/23 05:36:41;;;;;;;5.67;2.70;;;;;;;13.88;89.68;97018.16;2594502;31;20985;-75
2021/08/23 05:39:11;;;;;;;5.73;3.13;;;;;;;13.83;89.88;97011.44;2594578;54;20932;-75
2021/08/23 05:41:41;;;;;;;6.80;3.30;;;;;;;13.82;91.03;97019.47;2594682;36;20437;-76
2021/08/23 05:44:10;;;;;;;6.03;2.83;;;;;;;13.75;91.24;97019.09;2595492;54;20406;-75
2021/08/23 05:46:40;;;;;;;7.20;3.27;;;;;;;13.66;91.43;96998.72;2595670;36;20424;-75
2021/08/23 05:49:13;;;;;;;9.83;3.47;;;;;;;13.70;90.55;97008.09;2595204;54;20961;-75
2021/08/23 05:51:43;;;;;;;6.90;3.27;;;;;;;13.84;90.16;97014.94;2596022;36;21296;-75
2021/08/23 05:54:13;;;;;;;8.93;2.90;;;;;;;13.79;89.09;97009.16;2595754;54;20433;-75
2021/08/23 05:56:43;;;;;;;5.37;3.20;;;;;;;13.88;89.84;97011.13;2596018;36;20929;-74
2021/08/23 05:59:13;;;;;;;8.80;3.47;;;;;;;13.99;89.98;97012.91;2595740;54;21471;-76
2021/08/23 06:01:42;;;;;;;8.93;3.33;;;;;;;14.14;88.96;97016.19;2595809;36;20449;-74
2021/08/23 06:04:16;;;;;;;12.00;3.33;;;;;;;14.24;89.53;97023.25;2596249;54;20427;-74
2021/08/23 06:06:46;;;;;;;6.73;3.90;;;;;;;14.33;89.21;97016.47;2595940;36;20430;-74
2021/08/23 06:09:16;;;;;;;9.83;3.30;;;;;;;14.34;87.98;97019.91;2597703;31;20820;-75
2021/08/23 06:11:46;;;;;;;9.47;3.80;;;;;;;14.46;87.95;97026.03;2597383;36;20723;-76
2021/08/23 06:14:16;;;;;;;6.73;3.43;;;;;;;14.59;87.75;97024.16;2598927;54;20435;-75
2021/08/23 06:16:46;;;;;;;8.83;3.60;;;;;;;14.78;87.55;97026.19;2596760;36;20824;-75
2021/08/23 06:19:18;;;;;;;8.80;2.97;;;;;;;14.79;85.89;97028.69;2596440;54;20410;-75
2021/08/23 06:21:48;;;;;;;9.73;3.60;;;;;;;14.86;86.41;97029.06;2596677;36;20969;-75
2021/08/23 06:24:20;;;;;;;4.17;2.40;;;;;;;14.82;86.20;97028.47;2597270;54;20517;-75
2021/08/23 06:26:50;;;;;;;7.90;3.13;;;;;;;14.74;86.69;97022.09;2596481;31;20422;-75
2021/08/23 06:29:20;;;;;;;10.53;3.50;;;;;;;14.65;86.46;97028.13;2597054;54;20906;-75
2021/08/23 06:31:50;;;;;;;10.40;3.57;;;;;;;14.74;86.68;97020.31;2595885;36;20441;-75
2021/08/23 06:34:25;;;;;;;7.43;3.60;;;;;;;14.83;85.29;97014.28;2597442;54;20434;-74
2021/08/23 06:36:55;;;;;;;7.47;3.10;;;;;;;14.76;86.08;97021.03;2597818;36;20961;-75
2021/08/23 06:39:24;;;;;;;6.93;3.40;;;;;;;14.88;86.51;97013.94;2596052;39;20746;-75
2021/08/23 06:41:54;;;;;;;3.20;2.90;;;;;;;14.89;85.63;97017.41;2596113;31;20461;-76
2021/08/23 06:44:24;;;;;;;9.50;3.10;;;;;;;14.88;85.29;97016.59;2596377;54;21404;-75
2021/08/23 06:46:54;;;;;;;16.90;4.10;;;;;;;15.08;85.81;97020.25;2596313;36;20737;-75
2021/08/23 06:49:27;;;;;;;6.77;3.20;;;;;;;15.16;84.67;97024.94;2597098;39;20730;-75
2021/08/23 06:51:56;;;;;;;13.83;3.70;;;;;;;15.18;84.15;97021.19;2595361;36;20448;-75
2021/08/23 06:54:26;;;;;;;15.50;3.67;;;;;;;15.28;84.06;97020.47;2596186;39;20749;-75
2021/08/23 06:56:56;;;;;;;10.93;3.57;;;;;;;15.44;83.16;97028.78;2598374;36;20429;-76
2021/08/23 06:59:27;;;;;;;6.53;3.07;;;;;;;15.60;82.32;97023.94;2595325;47;20446;-76
2021/08/23 07:01:57;;;;;;;10.03;2.67;;;;;;;15.64;82.63;97024.50;2599318;36;20434;-76
2021/08/23 07:04:30;;;;;;;5.90;2.67;;;;;;;15.93;82.25;97018.66;2596191;54;21023;-76
2021/08/23 07:07:00;;;;;;;5.83;2.83;;;;;;;15.99;81.37;97024.28;2595868;36;20503;-76
2021/08/23 07:09:30;;;;;;;3.70;2.50;;;;;;;16.31;79.36;97027.78;2598269;54;20415;-76
2021/08/23 07:12:00;;;;;;;7.33;2.97;;;;;;;16.87;77.84;97022.06;2596118;36;21035;-76
2021/08/23 07:14:30;;;;;;;10.57;3.20;;;;;;;16.76;77.45;97022.97;2595820;54;20431;-76
2021/08/23 07:16:59;;;;;;;6.67;2.90;;;;;;;16.88;78.43;97021.09;2595108;31;20445;-76
2021/08/23 07:19:32;;;;;;;5.97;1.90;;;;;;;16.86;75.93;97022.22;2595474;54;20415;-75
2021/08/23 07:22:22;;;;;;;9.90;2.27;;;;;;;17.70;75.73;97021.75;2595448;36;20469;-76
2021/08/23 07:24:52;;;;;;;4.57;2.60;;;;;;;17.82;73.55;97009.22;2594829;39;20814;-76
2021/08/23 07:27:23;;;;;;;5.00;2.30;;;;;;;18.02;71.56;97018.03;2594278;31;20418;-76
2021/08/23 07:29:52;;;;;;;5.60;2.50;;;;;;;18.78;69.45;97024.06;2595030;39;20786;-76
2021/08/23 07:32:22;;;;;;;9.40;2.53;;;;;;;19.54;65.36;97019.44;2594936;36;20770;-76
2021/08/23 07:34:55;;;;;;;4.87;2.93;;;;;;;18.76;67.83;97004.00;2595392;54;20451;-77
2021/08/23 07:37:25;;;;;;;5.50;2.07;;;;;;;18.05;69.04;97012.44;2560330;54;2004569;-78
2021/08/23 07:39:54;;;;;;;10.53;3.13;;;;;;;17.72;71.50;97017.16;2595439;36;20427;-77
2021/08/23 07:42:24;;;;;;;4.83;2.70;;;;;;;17.77;71.09;97012.28;2596737;54;20917;-77
2021/08/23 07:44:55;;;;;;;7.13;2.83;;;;;;;17.11;72.49;97011.16;2596158;54;20423;-77
2021/08/23 07:47:24;;;;;;;3.50;1.63;;;;;;;17.30;72.67;97020.09;2595488;36;20930;-77
2021/08/23 07:49:57;;;;;;;9.03;2.77;;;;;;;17.62;72.78;97021.63;2595954;54;20427;-77
2021/08/23 07:52:26;;;;;;;3.60;2.30;;;;;;;17.87;69.82;97018.44;2558603;39;2004820;-78
2021/08/23 07:54:56;;;;;;;9.23;2.60;;;;;;;17.59;70.52;97022.75;2594887;36;20973;-77
2021/08/23 07:57:26;;;;;;;5.40;2.73;;;;;;;17.64;72.31;97024.97;2595571;39;21056;-77
2021/08/23 07:59:56;;;;;;;3.67;2.40;;;;;;;17.94;70.90;97014.25;2595098;36;20954;-77
2021/08/23 08:02:26;;;;;;;5.47;2.50;;;;;;;17.63;70.71;97010.06;2595856;54;20512;-77
2021/08/23 08:04:58;;;;;;;5.33;2.90;;;;;;;17.47;72.27;97021.22;2595733;36;20508;-77
2021/08/23 08:07:28;;;;;;;5.97;2.60;;;;;;;17.29;74.10;97021.03;2595859;39;20762;-77
2021/08/23 08:09:58;;;;;;;8.13;2.90;;;;;;;17.00;76.86;97024.47;2595504;36;20423;-77
2021/08/23 08:12:28;;;;;;;5.70;2.10;;;;;;;17.16;75.64;97026.59;2596375;54;20930;-77
2021/08/23 08:14:59;;;;;;;6.90;2.53;;;;;;;17.15;75.37;97020.47;2595105;36;20431;-77
2021/08/23 08:17:29;;;;;;;7.87;2.70;;;;;;;17.23;75.38;97017.16;2595857;54;20546;-77
2021/08/23 08:20:01;;;;;;;8.37;2.93;;;;;;;17.16;75.15;97029.25;2595275;36;20825;-77
2021/08/23 08:22:31;;;;;;;4.50;2.83;;;;;;;17.17;74.82;97031.78;2595107;54;20417;-76
2021/08/23 08:25:01;;;;;;;7.87;3.30;;;;;;;17.23;74.62;97025.09;2595255;36;21111;-76
2021/08/23 08:27:31;;;;;;;11.47;3.20;;;;;;;17.31;75.38;97030.53;2594143;47;20463;-74
2021/08/23 08:30:01;;;;;;;21.77;11.37;;;;;;;16.97;75.11;97032.69;2595149;36;20454;-74
2021/08/23 08:32:31;;;;;;;6.73;3.53;;;;;;;17.28;75.61;97024.69;2593602;47;20423;-74
2021/08/23 08:35:03;;;;;;;5.90;2.40;;;;;;;17.34;74.43;97024.94;2594521;31;20922;-74
2021/08/23 08:37:33;;;;;;;3.20;2.40;;;;;;;17.22;73.79;97027.88;2594031;54;20419;-74
2021/08/23 08:40:03;;;;;;;4.70;2.70;;;;;;;17.49;74.53;97020.09;2594769;36;20410;-77
2021/08/23 08:42:33;;;;;;;4.67;1.87;;;;;;;18.02;73.52;97020.69;2594822;54;20918;-76
2021/08/23 08:45:03;;;;;;;3.20;1.90;;;;;;;18.26;72.18;97034.28;2595401;36;20414;-76
2021/08/23 08:47:34;;;;;;;3.83;2.40;;;;;;;18.59;71.45;97029.47;2595030;54;21011;-76
2021/08/23 08:50:07;;;;;;;4.50;1.90;;;;;;;18.60;71.04;97028.47;2594506;36;20431;-76
2021/08/23 08:52:39;;;;;;;4.53;2.57;;;;;;;18.65;69.71;97033.34;2594778;54;20965;-77
2021/08/23 08:55:09;;;;;;;4.90;2.10;;;;;;;18.44;70.71;97026.44;2595021;36;21336;-76
2021/08/23 08:57:40;;;;;;;2.80;1.87;;;;;;;18.22;71.14;97027.59;2594831;54;20886;-77
2021/08/23 09:00:11;;;;;;;6.73;2.00;;;;;;;18.16;71.35;97033.47;2595041;36;20543;-77
2021/08/23 09:02:41;;;;;;;4.43;2.00;;;;;;;18.48;70.69;97040.22;2595085;54;20391;-76
2021/08/23 09:05:19;;;;;;;4.07;1.90;;;;;;;18.42;71.80;97040.81;2594603;36;20454;-76
2021/08/23 09:07:50;;;;;;;8.50;4.20;;;;;;;18.14;70.50;97046.03;2594734;54;20938;-74
2021/08/23 09:10:24;;;;;;;5.27;2.30;;;;;;;18.21;71.08;97046.28;2594610;36;20442;-74
2021/08/23 09:13:07;;;;;;;4.23;3.10;;;;;;;18.15;70.59;97042.41;2594703;54;20958;-74
2021/08/23 09:15:39;;;;;;;4.10;2.00;;;;;;;17.96;72.15;97052.06;2594928;36;21208;-74
2021/08/23 09:18:11;;;;;;;5.70;1.90;;;;;;;18.36;71.58;97058.13;2595815;39;20653;-74
2021/08/23 09:20:44;;;;;;;4.67;2.03;;;;;;;18.71;71.30;97046.84;2594888;36;20934;-75
2021/08/23 09:23:16;;;;;;;2.40;1.77;;;;;;;18.97;69.06;97054.19;2595365;54;20553;-73
2021/08/23 09:25:47;;;;;;;3.23;1.43;;;;;;;18.65;71.02;97039.47;2596702;36;21016;-73
2021/08/23 09:28:16;;;;;;;8.63;2.40;;;;;;;18.67;69.82;97040.16;2596768;54;20922;-74
2021/08/23 09:31:00;;;;;;;2.97;1.87;;;;;;;19.00;69.87;97050.41;2596404;36;20757;-74
2021/08/23 09:33:30;;;;;;;3.20;2.00;;;;;;;18.67;69.34;97050.78;2595968;39;21177;-74
2021/08/23 09:36:02;;;;;;;3.03;1.77;;;;;;;19.30;68.49;97054.56;2596605;36;21006;-74
2021/08/23 09:38:32;;;;;;;4.53;2.10;;;;;;;19.49;68.67;97065.06;2597192;54;20779;-74
2021/08/23 09:41:04;;;;;;;2.07;1.67;;;;;;;19.43;67.32;97054.22;2598356;36;20996;-74
2021/08/23 09:43:36;;;;;;;2.40;1.73;;;;;;;19.57;67.71;97059.00;2596907;54;20886;-74
2021/08/23 09:46:10;;;;;;;6.60;2.30;;;;;;;19.24;67.50;97058.66;2595174;31;20426;-74
2021/08/23 09:48:53;;;;;;;6.37;2.10;;;;;;;19.20;67.98;97056.44;2596775;54;21012;-75
2021/08/23 09:51:31;;;;;;;3.70;1.93;;;;;;;19.52;66.46;97061.25;2595763;31;20581;-74
2021/08/23 09:54:12;;;;;;;3.80;2.27;;;;;;;19.66;67.11;97060.75;2595578;54;20525;-75
2021/08/23 09:56:45;;;;;;;20.67;12.57;;;;;;;19.60;66.85;97053.41;2596184;36;20636;-74
2021/08/23 09:59:16;;;;;;;10.87;6.10;;;;;;;20.16;64.82;97059.38;2594659;46;20399;-74
2021/08/23 10:01:47;;;;;;;7.80;2.40;;;;;;;19.45;64.79;97063.69;2595748;36;20442;-75
2021/08/23 10:04:18;;;;;;;4.43;1.83;;;;;;;19.59;64.06;97062.34;2595317;54;20433;-74
2021/08/23 10:06:53;;;;;;;3.97;1.80;;;;;;;19.72;64.63;97065.50;2596112;36;20450;-74
2021/08/23 10:09:25;;;;;;;5.00;1.80;;;;;;;19.65;65.11;97061.75;2596300;54;20414;-74
2021/08/23 10:11:57;;;;;;;2.73;1.60;;;;;;;19.55;65.29;97059.16;2596005;31;20775;-74
2021/08/23 10:14:28;;;;;;;5.40;2.20;;;;;;;19.64;66.09;97061.88;2597728;54;20457;-74
2021/08/23 10:16:58;;;;;;;4.90;1.60;;;;;;;19.45;65.79;97062.88;2597735;36;20805;-74
2021/08/23 10:19:29;;;;;;;5.03;1.70;;;;;;;19.61;66.45;97067.50;2595975;54;20948;-73
2021/08/23 10:22:01;;;;;;;2.87;2.40;;;;;;;19.59;68.43;97064.19;2595733;36;20442;-73
2021/08/23 10:24:33;;;;;;;5.67;2.90;;;;;;;19.38;67.03;97062.63;2596243;54;21016;-73
2021/08/23 10:27:03;;;;;;;7.57;1.97;;;;;;;19.30;69.15;97062.53;2597050;36;20477;-74
2021/08/23 10:29:41;;;;;;;3.30;2.13;;;;;;;19.59;67.62;97065.00;2595699;39;20767;-74
2021/08/23 10:32:12;;;;;;;4.63;1.83;;;;;;;19.69;67.10;97063.09;2594618;36;20557;-73
2021/08/23 10:34:52;;;;;;;1.60;1.50;;;;;;;19.66;67.95;97062.56;2595712;54;20997;-73
2021/08/23 10:37:27;;;;;;;3.13;2.00;;;;;;;20.01;65.39;97059.09;2596406;31;20825;-73
2021/08/23 10:40:04;;;;;;;2.77;1.80;;;;;;;19.93;65.43;97062.53;2610114;36;20426;-74
2021/08/23 10:42:40;;;;;;;4.30;1.73;;;;;;;20.00;67.05;97065.41;2597637;39;20930;-74
2021/08/23 10:45:12;;;;;;;6.70;2.40;;;;;;;19.92;64.76;97068.84;2596348;36;20897;-74
2021/08/23 10:47:43;;;;;;;3.73;2.00;;;;;;;19.43;67.75;97068.31;2596549;39;20748;-74
2021/08/23 10:50:22;;;;;;;5.20;3.00;;;;;;;19.99;65.27;97063.72;2596549;36;20434;-73
2021/08/23 10:52:57;;;;;;;5.40;2.20;;;;;;;20.10;65.23;97068.00;2595727;39;20782;-73
2021/08/23 10:55:28;;;;;;;3.00;1.80;;;;;;;19.73;66.32;97066.31;2596340;36;20402;-73
2021/08/23 10:58:06;;;;;;;7.63;1.97;;;;;;;19.93;66.56;97067.84;2596057;54;20419;-73
2021/08/23 11:00:41;;;;;;;2.70;1.80;;;;;;;19.39;66.60;97059.00;2596643;36;20426;-73
2021/08/23 11:03:11;;;;;;;2.93;1.83;;;;;;;19.71;66.89;97063.81;2595517;54;20430;-74
2021/08/23 11:05:42;;;;;;;4.23;2.10;;;;;;;19.71;63.62;97047.88;2594929;36;20559;-74
2021/08/23 11:08:19;;;;;;;4.97;2.20;;;;;;;20.04;63.46;97050.00;2595946;54;20411;-73
2021/08/23 11:10:49;;;;;;;5.57;1.83;;;;;;;22.21;59.59;97043.34;2596190;36;20761;-74
2021/08/23 11:13:21;;;;;;;6.97;1.90;;;;;;;21.67;58.13;97041.19;2597203;54;20437;-74
2021/08/23 11:15:51;;;;;;;2.70;2.03;;;;;;;22.45;55.99;97040.69;2595998;36;20962;-73
2021/08/23 11:18:22;;;;;;;4.30;1.83;;;;;;;22.06;59.33;97035.22;2595542;39;20908;-73
2021/08/23 11:20:55;;;;;;;4.43;1.83;;;;;;;21.72;60.14;97042.34;2595868;36;20928;-72
2021/08/23 11:23:29;;;;;;;3.27;2.07;;;;;;;21.39;60.82;97037.94;2595588;39;21201;-73
2021/08/23 11:26:01;;;;;;;4.90;1.97;;;;;;;20.55;62.59;97046.53;2594392;36;20446;-73
2021/08/23 11:28:32;;;;;;;3.50;1.93;;;;;;;20.23;65.32;97043.66;2595919;54;21242;-73
2021/08/23 11:31:05;;;;;;;2.77;2.03;;;;;;;20.03;63.53;97045.66;2597137;36;20410;-72
2021/08/23 11:33:37;;;;;;;2.70;1.90;;;;;;;20.71;63.74;97037.81;2597462;54;21461;-72
2021/08/23 11:36:10;;;;;;;5.20;1.83;;;;;;;20.92;63.55;97042.75;2596888;36;20855;-73
2021/08/23 11:38:43;;;;;;;2.90;1.77;;;;;;;20.96;62.05;97048.59;2595323;54;20423;-73
2021/08/23 11:41:14;;;;;;;4.90;2.20;;;;;;;21.00;62.60;97052.63;2596321;36;20449;-73
2021/08/23 11:43:44;;;;;;;4.00;2.37;;;;;;;21.20;61.54;97047.03;2595898;39;21101;-73
2021/08/23 11:46:15;;;;;;;3.73;2.03;;;;;;;21.64;59.73;97041.50;2595071;36;20482;-72
2021/08/23 11:48:46;;;;;;;6.80;1.90;;;;;;;21.97;59.14;97042.34;2595238;47;20410;-73
2021/08/23 11:51:33;;;;;;;5.13;2.20;;;;;;;22.44;57.31;97033.72;2595431;36;20418;-73